Terminal Aerodrome Forecast
Issued by NWS Quad Cities IA IL

Home | Current Version | Previous Version | Text Only | Print | Product List | Glossary On
Versions: 1 2 3 4 5 6 7 8 9 10 11 12 13 14 15 16 17 18 19 20
000
FTUS43 KDVN 231902 AAA
TAFMLI
TAF AMD
KMLI 231902Z 2319/2418 36010KT P6SM BKN110
     FM232200 06012KT P6SM VCSH BKN020 OVC080
     FM240000 07010KT 3SM -RA BR VCTS OVC015CB
     FM240600 08015G22KT 2SM -RA BR OVC005
     FM241500 20013G21KT 4SM BR BKN010=

USA.gov is the U.S. government's official web portal to all federal, state and local government web resources and services.